Time;durP1;ratioP1;P1;durP2;ratioP2;P2;SDS_P1;SDS_P2;PMS_P1;PMS_P2;Temp;Humidity;BMP_temperature;BMP_pressure;BME280_temperature;BME280_humidity;BME280_pressure;Samples;Min_cycle;Max_cycle;Signal;HPM_P1;HPM_P2
2021/11/11 00:00:40;;;;;;;100.63;48.30;;;;;;;0.24;100.00;102271.13;2099286;28;20020;-66
2021/11/11 00:01:41;;;;;;;85.60;44.10;;;;;;;0.24;100.00;102272.84;2098624;28;20501;-67
2021/11/11 00:02:42;;;;;;;86.13;46.97;;;;;;;0.21;100.00;102265.91;2098620;28;20016;-66
2021/11/11 00:03:42;;;;;;;86.55;45.22;;;;;;;0.19;100.00;102270.16;2098411;28;20063;-66
2021/11/11 00:04:43;;;;;;;80.00;44.80;;;;;;;0.20;100.00;102266.75;2099211;28;20032;-66
2021/11/11 00:05:44;;;;;;;90.00;46.50;;;;;;;0.21;100.00;102265.91;2099251;28;20498;-66
2021/11/11 00:06:45;;;;;;;85.22;47.10;;;;;;;0.22;100.00;102266.78;2098524;28;20569;-66
2021/11/11 00:07:45;;;;;;;83.72;43.78;;;;;;;0.20;100.00;102269.31;2098534;28;20464;-67
2021/11/11 00:08:46;;;;;;;80.50;44.40;;;;;;;0.17;100.00;102266.66;2098654;28;20048;-67
2021/11/11 00:09:46;;;;;;;79.80;43.80;;;;;;;0.15;100.00;102263.22;2099219;28;20533;-67
2021/11/11 00:10:46;;;;;;;78.77;45.93;;;;;;;0.14;100.00;102264.06;2099247;28;20043;-66
2021/11/11 00:11:46;;;;;;;85.93;45.17;;;;;;;0.11;100.00;102262.25;2099248;28;20032;-66
2021/11/11 00:12:49;;;;;;;84.40;45.47;;;;;;;0.11;100.00;102264.81;2098512;28;20107;-67
2021/11/11 00:13:49;;;;;;;85.10;46.72;;;;;;;0.12;100.00;102258.00;2098594;28;20112;-66
2021/11/11 00:14:49;;;;;;;83.50;45.80;;;;;;;0.15;100.00;102265.78;2099222;28;20017;-66
2021/11/11 00:15:50;;;;;;;76.60;43.30;;;;;;;0.18;100.00;102254.72;2099086;28;20470;-67
2021/11/11 00:16:50;;;;;;;85.03;45.50;;;;;;;0.18;100.00;102255.59;2098535;28;20110;-66
2021/11/11 00:17:51;;;;;;;87.63;47.38;;;;;;;0.20;100.00;102266.75;2098520;28;20029;-67
2021/11/11 00:18:51;;;;;;;83.28;44.97;;;;;;;0.17;100.00;102266.66;2099225;28;20075;-67
2021/11/11 00:19:52;;;;;;;82.23;43.07;;;;;;;0.12;100.00;102260.56;2099158;28;20446;-68
2021/11/11 00:20:52;;;;;;;79.47;43.80;;;;;;;0.10;100.00;102257.97;2099177;28;20048;-67
2021/11/11 00:21:52;;;;;;;86.23;45.37;;;;;;;0.08;100.00;102253.63;2099169;28;20093;-67
2021/11/11 00:22:54;;;;;;;89.80;47.00;;;;;;;0.07;100.00;102252.75;2099128;28;20290;-67
2021/11/11 00:23:55;;;;;;;77.75;43.15;;;;;;;0.12;100.00;102250.28;2099056;28;20032;-67
2021/11/11 00:24:55;;;;;;;70.93;41.03;;;;;;;0.16;100.00;102241.81;2099168;28;20437;-67
2021/11/11 00:25:55;;;;;;;79.50;41.97;;;;;;;0.17;100.00;102243.56;2099166;28;20371;-66
2021/11/11 00:26:55;;;;;;;75.63;41.80;;;;;;;0.19;100.00;102249.63;2099082;28;20075;-66
2021/11/11 00:27:57;;;;;;;73.73;41.47;;;;;;;0.23;100.00;102248.84;2098305;28;20089;-67
2021/11/11 00:28:57;;;;;;;75.85;42.30;;;;;;;0.23;100.00;102242.84;2098427;28;20040;-66
2021/11/11 00:29:58;;;;;;;80.90;44.93;;;;;;;0.22;100.00;102247.13;2098398;28;20028;-66
2021/11/11 00:30:58;;;;;;;82.17;43.63;;;;;;;0.21;100.00;102245.38;2098469;28;20059;-67
2021/11/11 00:31:58;;;;;;;83.93;42.42;;;;;;;0.20;100.00;102233.38;2099077;28;20543;-66
2021/11/11 00:32:59;;;;;;;77.83;43.20;;;;;;;0.20;100.00;102241.06;2099033;28;20482;-66
2021/11/11 00:33:59;;;;;;;68.10;40.30;;;;;;;0.21;100.00;102235.09;2099010;28;20477;-66
2021/11/11 00:35:00;;;;;;;82.67;44.23;;;;;;;0.24;100.00;102234.31;2099024;28;20020;-66
2021/11/11 00:36:00;;;;;;;75.30;40.57;;;;;;;0.27;100.00;102228.38;2099033;28;20052;-66
2021/11/11 00:37:00;;;;;;;76.97;41.50;;;;;;;0.22;100.00;102234.28;2098977;28;20036;-66
2021/11/11 00:38:01;;;;;;;75.20;41.10;;;;;;;0.20;100.00;102228.22;2099037;28;20039;-66
2021/11/11 00:39:02;;;;;;;66.60;40.00;;;;;;;0.18;100.00;102234.16;2098977;28;20115;-66
2021/11/11 00:40:04;;;;;;;77.82;41.65;;;;;;;0.17;100.00;102233.28;2098947;28;20031;-66
2021/11/11 00:41:04;;;;;;;86.43;44.88;;;;;;;0.22;100.00;102226.59;2098943;28;20104;-66
2021/11/11 00:42:04;;;;;;;83.80;45.60;;;;;;;0.25;100.00;102231.75;2099006;28;20024;-66
2021/11/11 00:43:05;;;;;;;80.53;43.50;;;;;;;0.22;100.00;102226.59;2098937;28;20032;-66
2021/11/11 00:44:06;;;;;;;83.57;44.22;;;;;;;0.19;100.00;102226.50;2098229;28;20497;-66
2021/11/11 00:45:07;;;;;;;74.40;42.73;;;;;;;0.19;100.00;102228.19;2098353;28;20382;-66
2021/11/11 00:46:08;;;;;;;80.05;43.78;;;;;;;0.21;100.00;102227.38;2098926;28;20024;-66
2021/11/11 00:47:08;;;;;;;80.40;47.20;;;;;;;0.27;100.00;102230.94;2098863;28;20021;-66
2021/11/11 00:48:09;;;;;;;77.50;44.80;;;;;;;0.32;100.00;102229.34;2098250;28;20032;-66
2021/11/11 00:49:09;;;;;;;84.13;46.97;;;;;;;0.32;100.00;102235.38;2098720;28;20029;-65
2021/11/11 00:50:11;;;;;;;84.70;47.60;;;;;;;0.32;100.00;102237.94;2098896;28;20017;-66
2021/11/11 00:51:11;;;;;;;91.03;49.38;;;;;;;0.32;100.00;102234.47;2098896;28;20036;-66
2021/11/11 00:52:11;;;;;;;89.57;49.93;;;;;;;0.33;100.00;102233.63;2098821;28;20119;-67
2021/11/11 00:53:12;;;;;;;88.53;50.93;;;;;;;0.33;100.00;102236.22;2098925;28;20355;-66
2021/11/11 00:54:12;;;;;;;93.97;50.23;;;;;;;0.35;100.00;102237.97;2098154;28;20028;-66
2021/11/11 00:55:12;;;;;;;75.73;45.00;;;;;;;0.35;100.00;102234.56;2098327;28;20075;-65
2021/11/11 00:56:12;;;;;;;77.67;44.23;;;;;;;0.34;100.00;102235.41;2098809;28;20107;-66
2021/11/11 00:57:13;;;;;;;83.53;47.93;;;;;;;0.32;100.00;102232.78;2098873;28;20036;-65
2021/11/11 00:58:13;;;;;;;90.27;50.43;;;;;;;0.32;100.00;102227.66;2098870;28;20060;-66
2021/11/11 00:59:13;;;;;;;100.67;52.23;;;;;;;0.33;100.00;102223.38;2098829;28;20037;-66
2021/11/11 01:00:16;;;;;;;86.47;48.47;;;;;;;0.36;100.00;102228.59;2098827;28;20474;-66
2021/11/11 01:01:16;;;;;;;94.70;49.60;;;;;;;0.42;100.00;102218.47;2098795;28;20099;-67
2021/11/11 01:02:16;;;;;;;89.80;51.80;;;;;;;0.45;100.00;102217.66;2098791;28;20040;-66
2021/11/11 01:03:19;;;;;;;96.27;53.03;;;;;;;0.41;100.00;102218.41;2098816;28;20021;-66
2021/11/11 01:04:19;;;;;;;85.38;49.13;;;;;;;0.33;100.00;102225.94;2097784;28;20131;-66
2021/11/11 01:05:20;;;;;;;81.10;47.33;;;;;;;0.25;100.00;102226.63;2098258;28;20020;-66
2021/11/11 01:06:20;;;;;;;87.32;50.13;;;;;;;0.18;100.00;102229.91;2098749;28;20016;-67
2021/11/11 01:07:21;;;;;;;84.90;49.10;;;;;;;0.20;100.00;102222.25;2098721;28;20386;-67
2021/11/11 01:08:23;;;;;;;94.85;55.70;;;;;;;0.29;100.00;102224.13;2098730;28;20474;-67
2021/11/11 01:09:23;;;;;;;83.63;44.28;;;;;;;0.28;100.00;102217.28;2098060;28;20035;-66
2021/11/11 01:10:24;;;;;;;87.07;50.40;;;;;;;0.28;100.00;102219.84;2098072;28;20449;-66
2021/11/11 01:11:25;;;;;;;86.60;49.43;;;;;;;0.31;100.00;102222.47;2098157;28;20025;-66
2021/11/11 01:12:26;;;;;;;93.90;53.38;;;;;;;0.35;100.00;102221.72;2098688;28;20033;-67
2021/11/11 01:13:26;;;;;;;98.70;52.00;;;;;;;0.38;100.00;102221.78;2098078;28;20035;-67
2021/11/11 01:14:26;;;;;;;87.03;47.93;;;;;;;0.36;100.00;102221.75;2098301;28;20404;-67
2021/11/11 01:15:30;;;;;;;87.80;47.53;;;;;;;0.38;100.00;102221.78;2098028;28;20755;-67
2021/11/11 01:16:31;;;;;;;82.18;47.17;;;;;;;0.36;100.00;102213.16;2097997;28;20024;-66
2021/11/11 01:17:31;;;;;;;91.47;50.87;;;;;;;0.33;100.00;102218.22;2098691;28;20101;-66
2021/11/11 01:18:32;;;;;;;84.95;50.30;;;;;;;0.30;100.00;102218.19;2098671;28;20052;-66
2021/11/11 01:19:32;;;;;;;82.83;47.13;;;;;;;0.23;100.00;102220.59;2098674;28;20020;-66
2021/11/11 01:20:33;;;;;;;83.63;46.67;;;;;;;0.18;100.00;102217.06;2098739;28;20290;-66
2021/11/11 01:21:33;;;;;;;87.53;48.83;;;;;;;0.13;100.00;102216.06;2098652;28;20078;-66
2021/11/11 01:22:33;;;;;;;89.30;50.40;;;;;;;0.11;100.00;102223.75;2098713;28;20048;-67
2021/11/11 01:23:34;;;;;;;77.67;47.93;;;;;;;0.10;100.00;102213.47;2098616;28;20036;-66
2021/11/11 01:24:34;;;;;;;82.30;48.38;;;;;;;0.09;100.00;102216.84;2097870;28;20040;-67
2021/11/11 01:25:37;;;;;;;81.77;47.70;;;;;;;0.05;100.00;102221.03;2098015;28;20024;-66
2021/11/11 01:26:37;;;;;;;78.38;47.10;;;;;;;0.05;100.00;102218.47;2098469;28;20043;-66
2021/11/11 01:27:38;;;;;;;86.33;46.63;;;;;;;0.07;100.00;102226.22;2098652;28;20105;-67
2021/11/11 01:28:38;;;;;;;80.03;47.03;;;;;;;0.07;100.00;102227.06;2098691;28;20036;-66
2021/11/11 01:29:39;;;;;;;87.35;48.75;;;;;;;0.04;100.00;102228.72;2098589;28;20020;-66
2021/11/11 01:30:41;;;;;;;85.27;48.17;;;;;;;-0.01;100.00;102224.34;2097945;28;20017;-67
2021/11/11 01:31:42;;;;;;;77.80;44.75;;;;;;;-0.04;100.00;102225.94;2097975;28;20017;-66
2021/11/11 01:32:43;;;;;;;77.30;47.38;;;;;;;-0.07;100.00;102224.16;2098610;28;20020;-67
2021/11/11 01:33:45;;;;;;;79.97;46.27;;;;;;;-0.05;100.00;102227.66;2097915;28;20024;-67
2021/11/11 01:34:45;;;;;;;75.15;43.90;;;;;;;-0.03;100.00;102220.84;2097883;28;20013;-67
2021/11/11 01:35:45;;;;;;;78.20;44.47;;;;;;;-0.01;100.00;102226.91;2089616;28;20024;-67
2021/11/11 01:36:46;;;;;;;76.80;45.93;;;;;;;-0.01;100.00;102219.19;2097925;28;20078;-67
2021/11/11 01:37:46;;;;;;;77.70;47.13;;;;;;;-0.01;100.00;102232.03;2106347;28;20024;-67
2021/11/11 01:38:46;;;;;;;85.23;47.27;;;;;;;0.01;100.00;102236.34;2098621;28;20025;-65
2021/11/11 01:39:47;;;;;;;84.63;45.87;;;;;;;0.02;100.00;102232.94;2098505;28;20025;-67
2021/11/11 01:40:47;;;;;;;88.33;45.47;;;;;;;0.01;100.00;102236.34;2098506;28;20032;-67
2021/11/11 01:41:48;;;;;;;84.57;48.57;;;;;;;-0.02;100.00;102243.16;2097887;28;20587;-66
2021/11/11 01:42:49;;;;;;;;;;;;;;;0.01;100.00;102244.03;2098422;28;20051;-66
2021/11/11 01:43:49;;;;;;;68.90;41.30;;;;;;;-0.01;100.00;102242.31;2098491;28;20381;-66
2021/11/11 01:44:52;;;;;;;76.50;45.40;;;;;;;-0.01;100.00;102238.84;2097851;28;20028;-66
2021/11/11 01:45:52;;;;;;;79.93;44.72;;;;;;;-0.02;100.00;102238.00;2089792;28;20025;-66
2021/11/11 01:46:53;;;;;;;76.87;44.47;;;;;;;0.02;100.00;102238.94;2097946;28;20111;-65
2021/11/11 01:47:54;;;;;;;76.60;43.27;;;;;;;0.06;100.00;102237.28;2098457;28;20100;-66
2021/11/11 01:48:54;;;;;;;85.43;46.80;;;;;;;0.10;100.00;102241.69;2098453;28;20111;-67
2021/11/11 01:49:55;;;;;;;82.10;46.20;;;;;;;0.10;100.00;102242.56;2098478;28;20028;-67
2021/11/11 01:50:55;;;;;;;89.87;46.93;;;;;;;0.11;100.00;102235.72;2098477;28;20016;-66
2021/11/11 01:51:56;;;;;;;93.60;52.65;;;;;;;0.13;100.00;102236.63;2098451;28;20067;-66
2021/11/11 01:52:57;;;;;;;80.23;47.70;;;;;;;0.12;100.00;102234.88;2098418;28;20436;-66
2021/11/11 01:53:58;;;;;;;85.68;47.13;;;;;;;0.11;100.00;102239.16;2098400;28;20024;-65
2021/11/11 01:54:58;;;;;;;86.23;48.40;;;;;;;0.11;100.00;102234.00;2098475;28;20073;-66
2021/11/11 01:55:58;;;;;;;81.80;47.90;;;;;;;0.12;100.00;102230.63;2097820;28;20079;-66
2021/11/11 01:56:59;;;;;;;82.73;46.33;;;;;;;0.14;100.00;102233.25;2089512;28;20106;-66
2021/11/11 01:57:59;;;;;;;82.07;47.23;;;;;;;0.18;100.00;102229.91;2097861;28;20032;-67
2021/11/11 01:59:00;;;;;;;91.67;50.73;;;;;;;0.23;100.00;102227.44;2097759;28;20078;-67
2021/11/11 02:00:05;;;;;;;93.35;49.67;;;;;;;0.29;100.00;102225.00;2097718;28;20029;-66
2021/11/11 02:01:06;;;;;;;79.40;47.85;;;;;;;0.33;100.00;102223.38;2097403;28;20021;-66
2021/11/11 02:02:07;;;;;;;83.38;47.85;;;;;;;0.40;100.00;102221.84;2097769;28;20098;-65
2021/11/11 02:03:07;;;;;;;81.70;48.43;;;;;;;0.48;100.00;102226.28;2098479;28;20107;-66
2021/11/11 02:04:07;;;;;;;80.20;46.05;;;;;;;0.53;100.00;102222.94;2097417;28;20508;-66
2021/11/11 02:05:09;;;;;;;80.97;48.43;;;;;;;0.62;100.00;102225.72;2097847;28;20033;-66
2021/11/11 02:06:10;;;;;;;80.30;46.10;;;;;;;0.66;100.00;102227.53;2098501;28;20060;-66
2021/11/11 02:07:10;;;;;;;90.32;50.20;;;;;;;0.64;100.00;102224.03;2097725;28;20112;-66
2021/11/11 02:08:11;;;;;;;76.23;48.73;;;;;;;0.64;100.00;102224.94;2097810;28;20028;-67
2021/11/11 02:09:13;;;;;;;87.07;47.15;;;;;;;0.65;100.00;102220.63;2098290;28;20119;-66
2021/11/11 02:10:13;;;;;;;86.30;48.53;;;;;;;0.63;100.00;102228.34;2097760;28;20067;-66
2021/11/11 02:11:15;;;;;;;80.77;45.07;;;;;;;0.66;100.00;102224.97;2097833;28;20052;-66
2021/11/11 02:12:16;;;;;;;78.45;45.67;;;;;;;0.69;100.00;102230.16;2098451;28;20037;-66
2021/11/11 02:13:17;;;;;;;76.55;48.00;;;;;;;0.72;100.00;102222.50;2098388;28;20071;-66
2021/11/11 02:14:17;;;;;;;78.05;46.75;;;;;;;0.75;100.00;102231.97;2097731;28;20367;-67
2021/11/11 02:15:21;;;;;;;85.80;48.85;;;;;;;0.77;100.00;102223.47;2097741;28;20486;-66
2021/11/11 02:16:21;;;;;;;81.05;49.67;;;;;;;0.80;100.00;102224.38;2098419;28;20025;-66
2021/11/11 02:17:26;;;;;;;82.07;45.00;;;;;;;0.82;100.00;102222.72;2098324;28;20386;-65
2021/11/11 02:18:27;;;;;;;89.20;47.28;;;;;;;0.86;100.00;102215.06;2097673;28;20069;-66
2021/11/11 02:19:27;;;;;;;84.33;48.77;;;;;;;0.90;100.00;102216.88;2097797;28;20082;-65
2021/11/11 02:20:31;;;;;;;88.77;47.60;;;;;;;0.94;100.00;102212.66;2097634;28;20020;-67
2021/11/11 02:21:31;;;;;;;78.68;45.92;;;;;;;1.00;100.00;102212.78;2097831;28;20498;-66
2021/11/11 02:22:31;;;;;;;71.93;43.60;;;;;;;1.05;100.00;102207.72;2098370;28;20052;-68
2021/11/11 02:23:32;;;;;;;74.03;44.08;;;;;;;1.10;100.00;102207.84;2098367;28;20023;-66
2021/11/11 02:24:32;;;;;;;81.22;45.78;;;;;;;1.13;100.00;102203.59;2098296;28;20466;-66
2021/11/11 02:25:33;;;;;;;83.30;50.40;;;;;;;1.19;100.00;102213.13;2097730;28;20532;-66
2021/11/11 02:26:33;;;;;;;77.83;47.03;;;;;;;1.25;100.00;102213.25;2097771;28;20028;-66
2021/11/11 02:27:33;;;;;;;88.33;50.00;;;;;;;1.27;100.00;102209.00;2098341;28;20493;-67
2021/11/11 02:28:35;;;;;;;84.97;49.10;;;;;;;1.27;100.00;102206.44;2097670;28;20111;-67
2021/11/11 02:29:36;;;;;;;78.55;46.60;;;;;;;1.32;100.00;102208.22;2097715;28;20023;-66
2021/11/11 02:30:38;;;;;;;89.20;50.42;;;;;;;1.38;100.00;102209.22;2098324;28;20382;-66
2021/11/11 02:31:38;;;;;;;69.35;44.67;;;;;;;1.44;100.00;102203.31;2098286;28;20095;-66
2021/11/11 02:32:38;;;;;;;74.10;43.93;;;;;;;1.50;100.00;102197.38;2097686;28;20091;-66
2021/11/11 02:33:39;;;;;;;80.43;45.60;;;;;;;1.56;100.00;102197.50;2097697;28;20020;-67
2021/11/11 02:34:39;;;;;;;75.67;46.47;;;;;;;1.60;100.00;102198.41;2098352;28;20843;-67
2021/11/11 02:35:40;;;;;;;74.70;45.47;;;;;;;1.60;100.00;102195.84;2098328;28;20024;-67
2021/11/11 02:36:56;;;;;;;88.70;45.63;;;;;;;1.62;100.00;102189.91;2098271;28;20101;-67
2021/11/11 02:38:00;;;;;;;88.45;45.90;;;;;;;1.64;100.00;102192.50;2097645;28;20101;-66
2021/11/11 02:39:00;;;;;;;89.95;46.22;;;;;;;1.67;100.00;102201.13;2097748;28;20020;-67
2021/11/11 02:40:06;;;;;;;81.87;46.03;;;;;;;1.69;100.00;102193.44;2098315;28;20024;-67
2021/11/11 02:41:06;;;;;;;78.03;48.20;;;;;;;1.69;100.00;102192.56;2097551;28;20032;-67
2021/11/11 02:42:06;;;;;;;90.43;47.40;;;;;;;1.69;100.00;102188.28;2097542;28;20067;-67
2021/11/11 02:43:09;;;;;;;85.67;46.70;;;;;;;1.72;100.00;102184.88;2097746;28;20070;-67
2021/11/11 02:44:10;;;;;;;82.70;45.83;;;;;;;1.74;100.00;102183.22;2097623;28;20028;-66
2021/11/11 02:45:13;;;;;;;88.25;50.83;;;;;;;1.76;100.00;102179.81;2097607;28;20421;-66
2021/11/11 02:46:14;;;;;;;86.35;49.05;;;;;;;1.79;100.00;102185.00;2097676;28;20081;-66
2021/11/11 02:47:14;;;;;;;85.13;47.83;;;;;;;1.79;100.00;102179.00;2098234;28;20032;-66
2021/11/11 02:48:18;;;;;;;74.25;45.42;;;;;;;1.83;100.00;102185.94;2098208;28;20025;-67
2021/11/11 02:49:18;;;;;;;81.07;44.85;;;;;;;1.85;100.00;102178.25;2098187;28;20034;-66
2021/11/11 02:50:20;;;;;;;86.40;48.23;;;;;;;1.87;100.00;102181.69;2098289;28;20040;-67
2021/11/11 02:51:20;;;;;;;87.70;49.55;;;;;;;1.90;100.00;102176.59;2098208;28;20317;-66
2021/11/11 02:52:20;;;;;;;75.53;43.17;;;;;;;1.93;100.00;102187.81;2098253;28;20038;-66
2021/11/11 02:53:22;;;;;;;75.23;41.27;;;;;;;1.94;100.00;102183.50;2097499;28;20119;-67
2021/11/11 02:54:22;;;;;;;76.05;44.42;;;;;;;1.97;100.00;102175.84;2097652;28;20054;-66
2021/11/11 02:55:22;;;;;;;81.23;43.63;;;;;;;1.99;100.00;102181.88;2098209;28;20519;-67
2021/11/11 02:56:23;;;;;;;90.80;46.37;;;;;;;1.98;100.00;102179.28;2098226;28;20020;-67
2021/11/11 02:57:28;;;;;;;82.20;48.63;;;;;;;1.95;100.00;102180.09;2098214;28;20028;-67
2021/11/11 02:58:28;;;;;;;85.85;46.22;;;;;;;1.95;100.00;102185.25;2097528;28;20013;-66
2021/11/11 02:59:33;;;;;;;88.13;46.63;;;;;;;1.96;100.00;102187.00;2097667;28;20454;-66
2021/11/11 03:00:58;;;;;;;79.72;45.42;;;;;;;1.97;100.00;102182.69;2097511;28;20019;-66
2021/11/11 03:01:59;;;;;;;85.68;45.65;;;;;;;1.97;100.00;102185.25;2092516;28;20504;-65
2021/11/11 03:02:59;;;;;;;79.40;47.33;;;;;;;1.95;100.00;102192.97;2097633;28;20027;-66
2021/11/11 03:03:59;;;;;;;91.80;48.80;;;;;;;1.94;100.00;102193.81;2097288;28;20408;-66
2021/11/11 03:05:02;;;;;;;91.03;50.07;;;;;;;1.93;100.00;102189.50;2097722;28;20024;-67
2021/11/11 03:06:02;;;;;;;92.43;50.75;;;;;;;1.94;100.00;102191.25;2098185;28;20020;-66
2021/11/11 03:07:03;;;;;;;93.00;50.33;;;;;;;1.96;100.00;102194.72;2098163;28;20112;-66
2021/11/11 03:08:04;;;;;;;88.47;48.13;;;;;;;1.93;100.00;102194.66;2097536;28;20086;-66
2021/11/11 03:09:04;;;;;;;85.75;49.67;;;;;;;1.92;100.00;102191.22;2097675;28;20029;-66
2021/11/11 03:10:06;;;;;;;88.67;53.20;;;;;;;1.93;100.00;102186.94;2098153;28;20031;-66
2021/11/11 03:11:07;;;;;;;87.88;49.22;;;;;;;1.92;100.00;102190.38;2098219;28;20033;-66
2021/11/11 03:12:07;;;;;;;98.70;52.27;;;;;;;1.91;100.00;102193.75;2098812;28;20044;-66
2021/11/11 03:13:10;;;;;;;97.03;51.40;;;;;;;1.91;100.00;102188.59;2099073;28;20283;-67
2021/11/11 03:14:10;;;;;;;89.72;48.88;;;;;;;1.90;100.00;102194.63;2099646;28;20052;-66
2021/11/11 03:15:12;;;;;;;93.73;50.73;;;;;;;1.91;100.00;102188.59;2099647;28;20389;-67
2021/11/11 03:16:12;;;;;;;85.30;48.45;;;;;;;1.89;100.00;102191.16;2098919;28;20431;-66
2021/11/11 03:17:13;;;;;;;82.80;49.83;;;;;;;1.89;100.00;102195.47;2099040;28;20066;-67
2021/11/11 03:18:13;;;;;;;87.18;47.20;;;;;;;1.90;100.00;102192.03;2098850;28;20016;-66
2021/11/11 03:19:13;;;;;;;86.17;48.13;;;;;;;1.91;100.00;102193.75;2099042;28;20482;-66
2021/11/11 03:20:16;;;;;;;83.40;48.13;;;;;;;1.94;100.00;102193.81;2099593;28;20036;-67
2021/11/11 03:21:16;;;;;;;93.10;50.50;;;;;;;1.93;100.00;102189.50;2098865;28;20535;-66
2021/11/11 03:22:20;;;;;;;93.53;53.13;;;;;;;1.92;100.00;102190.38;2099004;28;20119;-67
2021/11/11 03:23:21;;;;;;;91.30;48.90;;;;;;;1.91;100.00;102188.59;2099626;28;20461;-67
2021/11/11 03:24:21;;;;;;;88.72;49.78;;;;;;;1.91;100.00;102193.75;2099479;28;20029;-67
2021/11/11 03:25:24;;;;;;;100.30;48.80;;;;;;;1.91;100.00;102184.34;2099601;28;20016;-67
2021/11/11 03:26:24;;;;;;;96.28;49.70;;;;;;;1.91;100.00;102186.03;2099512;28;20028;-66
2021/11/11 03:27:26;;;;;;;97.27;48.33;;;;;;;1.95;100.00;102185.25;2099529;28;20036;-66
2021/11/11 03:28:26;;;;;;;93.75;50.17;;;;;;;2.00;100.00;102188.78;2098754;28;20055;-66
2021/11/11 03:29:27;;;;;;;89.23;48.70;;;;;;;2.02;100.00;102192.22;2098953;28;20059;-67
2021/11/11 03:30:27;;;;;;;96.77;49.80;;;;;;;2.02;100.00;102191.38;2099404;28;20032;-67
2021/11/11 03:31:27;;;;;;;85.80;46.50;;;;;;;2.00;100.00;102188.78;2099546;28;20034;-65
2021/11/11 03:32:28;;;;;;;90.63;45.70;;;;;;;2.01;100.00;102184.47;2099511;28;20466;-66
2021/11/11 03:33:28;;;;;;;99.13;50.57;;;;;;;2.01;100.00;102185.34;2098820;28;20028;-67
2021/11/11 03:34:28;;;;;;;91.27;49.87;;;;;;;2.01;100.00;102185.34;2098969;28;20068;-66
2021/11/11 03:35:29;;;;;;;81.47;43.80;;;;;;;2.02;100.00;102187.06;2099522;28;20021;-67
2021/11/11 03:36:29;;;;;;;89.90;50.73;;;;;;;2.02;100.00;102192.22;2098813;28;20048;-66
2021/11/11 03:37:29;;;;;;;84.13;46.73;;;;;;;2.01;100.00;102187.91;2098889;28;20097;-66
2021/11/11 03:38:30;;;;;;;88.73;45.57;;;;;;;2.01;100.00;102190.50;2099468;28;20091;-67
2021/11/11 03:39:31;;;;;;;94.67;46.50;;;;;;;2.03;100.00;102188.81;2099463;28;20020;-67
2021/11/11 03:40:36;;;;;;;81.75;45.20;;;;;;;2.05;100.00;102184.53;2099361;28;20024;-67
2021/11/11 03:41:36;;;;;;;87.72;47.45;;;;;;;2.09;100.00;102184.59;2099439;28;20016;-66
2021/11/11 03:42:37;;;;;;;94.80;45.37;;;;;;;2.12;100.00;102192.38;2099385;28;20017;-66
2021/11/11 03:43:37;;;;;;;85.40;44.17;;;;;;;2.14;100.00;102186.41;2098894;28;20043;-66
2021/11/11 03:44:39;;;;;;;86.50;43.93;;;;;;;2.16;100.00;102189.84;2098708;28;20028;-67
2021/11/11 03:45:40;;;;;;;100.20;49.03;;;;;;;2.15;100.00;102187.25;2098780;28;20051;-66
2021/11/11 03:46:40;;;;;;;86.93;44.58;;;;;;;2.15;100.00;102182.97;2099384;28;20485;-67
2021/11/11 03:47:41;;;;;;;93.33;48.93;;;;;;;2.18;100.00;102184.72;2099491;28;20055;-66
2021/11/11 03:48:41;;;;;;;87.77;45.57;;;;;;;2.22;100.00;102185.66;2099399;28;20032;-67
2021/11/11 03:49:42;;;;;;;80.87;45.40;;;;;;;2.25;100.00;102193.41;2098664;28;20027;-67
2021/11/11 03:50:42;;;;;;;85.95;44.65;;;;;;;2.25;100.00;102186.53;2098844;28;20051;-66
2021/11/11 03:51:44;;;;;;;92.90;46.77;;;;;;;2.25;100.00;102178.81;2098709;28;20042;-67
2021/11/11 03:52:45;;;;;;;90.93;46.90;;;;;;;2.28;100.00;102180.56;2098835;28;20508;-66
2021/11/11 03:53:46;;;;;;;;;;;;;;;2.33;100.00;102180.63;2099092;28;20034;-66
2021/11/11 03:54:46;;;;;;;91.85;41.78;;;;;;;2.34;100.00;102177.19;2098782;28;19916;-66
2021/11/11 03:55:47;;;;;;;81.07;41.40;;;;;;;2.37;100.00;102187.56;2098603;28;20037;-67
2021/11/11 03:56:48;;;;;;;72.27;40.17;;;;;;;2.39;100.00;102185.88;2098732;28;20029;-67
2021/11/11 03:57:51;;;;;;;90.70;43.17;;;;;;;2.39;100.00;102191.88;2099315;28;20028;-67
2021/11/11 03:58:51;;;;;;;88.97;43.70;;;;;;;2.41;100.00;102191.91;2099246;28;20024;-67
2021/11/11 03:59:52;;;;;;;95.53;45.67;;;;;;;2.41;100.00;102190.22;2099221;28;20547;-66
2021/11/11 04:00:52;;;;;;;86.20;42.45;;;;;;;2.43;100.00;102192.81;2098651;28;20111;-66
2021/11/11 04:01:54;;;;;;;81.28;42.03;;;;;;;2.48;100.00;102185.13;2098693;28;20034;-67
2021/11/11 04:02:54;;;;;;;81.13;42.75;;;;;;;2.51;100.00;102190.31;2098579;28;20516;-67
2021/11/11 04:03:55;;;;;;;96.13;47.07;;;;;;;2.53;100.00;102192.06;2098604;28;20071;-67
2021/11/11 04:04:55;;;;;;;83.72;42.67;;;;;;;2.55;100.00;102192.97;2099280;28;20061;-67
2021/11/11 04:05:55;;;;;;;77.47;40.17;;;;;;;2.57;100.00;102195.56;2099245;28;20493;-67
2021/11/11 04:06:56;;;;;;;86.70;44.17;;;;;;;2.57;100.00;102188.69;2099208;28;20028;-67
2021/11/11 04:07:56;;;;;;;81.57;42.57;;;;;;;2.59;100.00;102193.00;2099211;28;20025;-66
2021/11/11 04:08:59;;;;;;;88.33;43.07;;;;;;;2.63;100.00;102189.63;2099260;28;20064;-67
2021/11/11 04:09:59;;;;;;;83.85;39.60;;;;;;;2.63;100.00;102193.03;2099279;28;20028;-67
2021/11/11 04:11:01;;;;;;;83.07;44.23;;;;;;;2.65;100.00;102182.75;2099293;28;20073;-67
2021/11/11 04:12:01;;;;;;;85.18;42.60;;;;;;;2.65;100.00;102182.75;2099215;28;20031;-65
2021/11/11 04:13:05;;;;;;;85.40;41.03;;;;;;;2.67;100.00;102191.38;2099249;28;20039;-66
2021/11/11 04:14:06;;;;;;;93.45;42.42;;;;;;;2.70;100.00;102193.97;2098521;28;20472;-67
2021/11/11 04:15:07;;;;;;;83.32;42.00;;;;;;;2.71;100.00;102188.00;2098579;28;20033;-67
2021/11/11 04:16:08;;;;;;;;;;;;;;;2.74;100.00;102198.31;2090678;28;20043;-66
2021/11/11 04:17:08;;;;;;;97.55;41.80;;;;;;;2.72;100.00;102189.72;2098601;28;19969;-66
2021/11/11 04:18:09;;;;;;;77.37;41.40;;;;;;;2.76;100.00;102191.50;2098549;28;20028;-66
2021/11/11 04:19:09;;;;;;;85.80;44.13;;;;;;;2.81;100.00;102194.13;2090156;28;20059;-66
2021/11/11 04:20:11;;;;;;;82.40;40.60;;;;;;;2.83;100.00;102190.72;2098458;28;20482;-67
2021/11/11 04:21:11;;;;;;;83.38;40.55;;;;;;;2.86;100.00;102181.28;2098614;28;20082;-66
2021/11/11 04:22:11;;;;;;;88.40;40.25;;;;;;;2.89;100.00;102191.63;2099100;28;20059;-67
2021/11/11 04:23:12;;;;;;;90.50;41.17;;;;;;;2.92;100.00;102191.66;2099137;28;20024;-67
2021/11/11 04:24:12;;;;;;;85.63;44.57;;;;;;;2.92;100.00;102187.38;2099021;28;20021;-66
2021/11/11 04:25:16;;;;;;;78.87;36.70;;;;;;;2.93;100.00;102183.09;2099107;28;20036;-66
2021/11/11 04:26:54;;;;;;;87.47;42.78;;;;;;;2.92;100.00;102181.34;2099025;28;20727;-67
2021/11/11 04:27:52;;;;;;;72.63;38.50;;;;;;;2.90;100.00;102181.34;2097778;28;20036;-66
2021/11/11 04:28:59;;;;;;;82.30;39.80;;;;;;;2.92;100.00;102181.34;2099105;28;20040;-66
2021/11/11 04:31:30;;;;;;;82.65;38.55;;;;;;;2.99;100.00;102188.31;2099184;28;20115;-66
2021/11/11 04:32:30;;;;;;;88.63;39.95;;;;;;;3.02;100.00;102185.78;2099026;28;20017;-66
2021/11/11 04:33:31;;;;;;;75.93;35.97;;;;;;;3.05;100.00;102178.06;2099044;28;20430;-66
2021/11/11 04:34:33;;;;;;;78.80;40.10;;;;;;;3.07;100.00;102184.09;2099010;28;20023;-66
2021/11/11 04:35:33;;;;;;;83.25;38.30;;;;;;;3.12;100.00;102189.31;2098367;28;20068;-66
2021/11/11 04:41:54;;;;;;;67.45;35.25;;;;;;;3.22;100.00;102182.53;2099110;28;20109;-66
2021/11/11 04:44:16;;;;;;;78.70;36.17;;;;;;;3.30;100.00;102180.91;2098471;28;20464;-68
2021/11/11 04:45:45;;;;;;;81.68;36.80;;;;;;;3.33;100.00;102183.50;2098803;28;20047;-66
2021/11/11 04:47:05;;;;;;;79.95;37.63;;;;;;;3.34;100.00;102182.66;2098755;28;20040;-67